sensor_id;sensor_type;location;lat;lon;timestamp;P1;durP1;ratioP1;P2;durP2;ratioP2
13959;SDS011;7052;51.050;3.716;2024-01-30T00:00:22;7.27;;;6.20;;
13959;SDS011;7052;51.050;3.716;2024-01-30T00:02:50;7.10;;;5.77;;
13959;SDS011;7052;51.050;3.716;2024-01-30T00:05:18;9.73;;;7.23;;
13959;SDS011;7052;51.050;3.716;2024-01-30T00:07:45;8.13;;;5.97;;
13959;SDS011;7052;51.050;3.716;2024-01-30T00:10:12;9.43;;;6.37;;
13959;SDS011;7052;51.050;3.716;2024-01-30T00:12:39;7.20;;;5.80;;
13959;SDS011;7052;51.050;3.716;2024-01-30T00:15:06;7.53;;;6.07;;
13959;SDS011;7052;51.050;3.716;2024-01-30T00:17:37;9.03;;;7.60;;
13959;SDS011;7052;51.050;3.716;2024-01-30T00:20:05;9.83;;;6.07;;
13959;SDS011;7052;51.050;3.716;2024-01-30T00:22:36;13.77;;;11.03;;
13959;SDS011;7052;51.050;3.716;2024-01-30T00:25:05;8.63;;;6.40;;
13959;SDS011;7052;51.050;3.716;2024-01-30T00:27:32;12.00;;;7.63;;
13959;SDS011;7052;51.050;3.716;2024-01-30T00:29:59;10.50;;;6.57;;
13959;SDS011;7052;51.050;3.716;2024-01-30T00:32:26;8.20;;;6.43;;
13959;SDS011;7052;51.050;3.716;2024-01-30T00:35:02;8.87;;;7.30;;
13959;SDS011;7052;51.050;3.716;2024-01-30T00:37:30;8.40;;;6.77;;
13959;SDS011;7052;51.050;3.716;2024-01-30T00:39:59;11.63;;;6.67;;
13959;SDS011;7052;51.050;3.716;2024-01-30T00:42:27;7.93;;;6.07;;
13959;SDS011;7052;51.050;3.716;2024-01-30T00:44:54;6.83;;;5.90;;
13959;SDS011;7052;51.050;3.716;2024-01-30T00:47:22;10.80;;;8.53;;
13959;SDS011;7052;51.050;3.716;2024-01-30T00:49:50;7.83;;;7.03;;
13959;SDS011;7052;51.050;3.716;2024-01-30T00:52:18;10.87;;;8.00;;
13959;SDS011;7052;51.050;3.716;2024-01-30T00:54:46;9.33;;;7.33;;
13959;SDS011;7052;51.050;3.716;2024-01-30T00:57:16;12.03;;;8.20;;
13959;SDS011;7052;51.050;3.716;2024-01-30T00:59:44;11.53;;;8.33;;
13959;SDS011;7052;51.050;3.716;2024-01-30T01:02:13;7.23;;;6.13;;
13959;SDS011;7052;51.050;3.716;2024-01-30T01:04:42;8.53;;;6.83;;
13959;SDS011;7052;51.050;3.716;2024-01-30T01:07:11;10.00;;;6.40;;
13959;SDS011;7052;51.050;3.716;2024-01-30T01:09:39;11.20;;;7.10;;
13959;SDS011;7052;51.050;3.716;2024-01-30T01:12:07;7.30;;;6.10;;
13959;SDS011;7052;51.050;3.716;2024-01-30T01:14:35;8.57;;;5.97;;
13959;SDS011;7052;51.050;3.716;2024-01-30T01:17:02;7.30;;;6.13;;
13959;SDS011;7052;51.050;3.716;2024-01-30T01:19:30;7.13;;;6.43;;
13959;SDS011;7052;51.050;3.716;2024-01-30T01:21:57;6.53;;;5.90;;
13959;SDS011;7052;51.050;3.716;2024-01-30T01:24:24;8.60;;;6.73;;
13959;SDS011;7052;51.050;3.716;2024-01-30T01:26:54;9.80;;;8.30;;
13959;SDS011;7052;51.050;3.716;2024-01-30T01:29:22;15.17;;;11.63;;
13959;SDS011;7052;51.050;3.716;2024-01-30T01:31:53;9.07;;;7.10;;
13959;SDS011;7052;51.050;3.716;2024-01-30T01:34:23;10.13;;;7.63;;
13959;SDS011;7052;51.050;3.716;2024-01-30T01:36:51;9.40;;;7.77;;
13959;SDS011;7052;51.050;3.716;2024-01-30T01:39:20;10.27;;;6.50;;
13959;SDS011;7052;51.050;3.716;2024-01-30T01:41:48;8.63;;;6.33;;
13959;SDS011;7052;51.050;3.716;2024-01-30T01:44:16;8.03;;;6.50;;
13959;SDS011;7052;51.050;3.716;2024-01-30T01:46:45;9.17;;;6.37;;
13959;SDS011;7052;51.050;3.716;2024-01-30T01:49:13;7.73;;;6.50;;
13959;SDS011;7052;51.050;3.716;2024-01-30T01:51:42;9.43;;;7.13;;
13959;SDS011;7052;51.050;3.716;2024-01-30T01:54:10;7.70;;;6.23;;
13959;SDS011;7052;51.050;3.716;2024-01-30T01:56:39;7.53;;;6.30;;
13959;SDS011;7052;51.050;3.716;2024-01-30T01:59:08;7.67;;;6.87;;
13959;SDS011;7052;51.050;3.716;2024-01-30T02:01:37;8.10;;;6.70;;
13959;SDS011;7052;51.050;3.716;2024-01-30T02:04:06;8.00;;;6.47;;
13959;SDS011;7052;51.050;3.716;2024-01-30T02:06:33;7.17;;;6.03;;
13959;SDS011;7052;51.050;3.716;2024-01-30T02:09:03;7.43;;;6.23;;
13959;SDS011;7052;51.050;3.716;2024-01-30T02:11:30;6.90;;;6.20;;
13959;SDS011;7052;51.050;3.716;2024-01-30T02:14:01;8.83;;;7.37;;
13959;SDS011;7052;51.050;3.716;2024-01-30T02:16:31;7.10;;;6.10;;
13959;SDS011;7052;51.050;3.716;2024-01-30T02:19:01;7.90;;;6.43;;
13959;SDS011;7052;51.050;3.716;2024-01-30T02:21:29;8.40;;;6.63;;
13959;SDS011;7052;51.050;3.716;2024-01-30T02:23:57;7.27;;;6.57;;
13959;SDS011;7052;51.050;3.716;2024-01-30T02:26:29;8.33;;;6.70;;
13959;SDS011;7052;51.050;3.716;2024-01-30T02:28:56;6.50;;;5.90;;
13959;SDS011;7052;51.050;3.716;2024-01-30T02:31:24;7.47;;;6.17;;
13959;SDS011;7052;51.050;3.716;2024-01-30T02:33:51;9.40;;;6.80;;
13959;SDS011;7052;51.050;3.716;2024-01-30T02:36:20;8.00;;;6.60;;
13959;SDS011;7052;51.050;3.716;2024-01-30T02:38:49;6.93;;;6.23;;
13959;SDS011;7052;51.050;3.716;2024-01-30T02:41:16;8.73;;;6.53;;
13959;SDS011;7052;51.050;3.716;2024-01-30T02:43:43;7.07;;;6.37;;
13959;SDS011;7052;51.050;3.716;2024-01-30T02:46:12;8.53;;;6.53;;
13959;SDS011;7052;51.050;3.716;2024-01-30T02:48:40;8.77;;;6.77;;
13959;SDS011;7052;51.050;3.716;2024-01-30T02:51:07;9.03;;;6.77;;
13959;SDS011;7052;51.050;3.716;2024-01-30T02:53:35;9.47;;;6.57;;
13959;SDS011;7052;51.050;3.716;2024-01-30T02:56:04;8.77;;;6.90;;
13959;SDS011;7052;51.050;3.716;2024-01-30T02:58:35;7.87;;;6.33;;
13959;SDS011;7052;51.050;3.716;2024-01-30T03:01:04;8.17;;;7.13;;
13959;SDS011;7052;51.050;3.716;2024-01-30T03:03:36;8.43;;;6.80;;
13959;SDS011;7052;51.050;3.716;2024-01-30T03:06:03;7.30;;;6.60;;
13959;SDS011;7052;51.050;3.716;2024-01-30T03:08:32;8.50;;;7.03;;
13959;SDS011;7052;51.050;3.716;2024-01-30T03:11:00;9.10;;;6.80;;
13959;SDS011;7052;51.050;3.716;2024-01-30T03:13:28;7.47;;;6.73;;
13959;SDS011;7052;51.050;3.716;2024-01-30T03:15:58;9.23;;;6.83;;
13959;SDS011;7052;51.050;3.716;2024-01-30T03:18:25;8.80;;;6.90;;
13959;SDS011;7052;51.050;3.716;2024-01-30T03:20:54;9.80;;;7.00;;
13959;SDS011;7052;51.050;3.716;2024-01-30T03:23:21;8.03;;;6.57;;
13959;SDS011;7052;51.050;3.716;2024-01-30T03:25:49;7.80;;;6.90;;
13959;SDS011;7052;51.050;3.716;2024-01-30T03:28:16;7.83;;;7.00;;
13959;SDS011;7052;51.050;3.716;2024-01-30T03:30:50;9.73;;;6.93;;
13959;SDS011;7052;51.050;3.716;2024-01-30T03:33:17;8.67;;;6.97;;
13959;SDS011;7052;51.050;3.716;2024-01-30T03:35:44;8.07;;;7.03;;
13959;SDS011;7052;51.050;3.716;2024-01-30T03:38:14;8.57;;;6.90;;
13959;SDS011;7052;51.050;3.716;2024-01-30T03:40:41;8.77;;;6.40;;
13959;SDS011;7052;51.050;3.716;2024-01-30T03:43:08;9.70;;;7.20;;
13959;SDS011;7052;51.050;3.716;2024-01-30T03:45:37;7.67;;;6.63;;
13959;SDS011;7052;51.050;3.716;2024-01-30T03:48:10;8.17;;;6.50;;
13959;SDS011;7052;51.050;3.716;2024-01-30T03:50:36;9.13;;;6.80;;
13959;SDS011;7052;51.050;3.716;2024-01-30T03:53:09;9.83;;;6.90;;
13959;SDS011;7052;51.050;3.716;2024-01-30T03:55:38;10.73;;;7.27;;
13959;SDS011;7052;51.050;3.716;2024-01-30T03:58:05;8.70;;;7.10;;
13959;SDS011;7052;51.050;3.716;2024-01-30T04:00:32;9.50;;;6.83;;
13959;SDS011;7052;51.050;3.716;2024-01-30T04:02:59;9.60;;;7.90;;
13959;SDS011;7052;51.050;3.716;2024-01-30T04:05:28;9.43;;;7.70;;
13959;SDS011;7052;51.050;3.716;2024-01-30T04:07:56;8.07;;;7.17;;
13959;SDS011;7052;51.050;3.716;2024-01-30T04:10:23;8.00;;;6.93;;
13959;SDS011;7052;51.050;3.716;2024-01-30T04:12:51;8.77;;;6.97;;
13959;SDS011;7052;51.050;3.716;2024-01-30T04:15:19;8.20;;;7.33;;
13959;SDS011;7052;51.050;3.716;2024-01-30T04:17:47;9.07;;;7.47;;
13959;SDS011;7052;51.050;3.716;2024-01-30T04:20:14;9.43;;;7.20;;
13959;SDS011;7052;51.050;3.716;2024-01-30T04:22:43;7.20;;;6.50;;
13959;SDS011;7052;51.050;3.716;2024-01-30T04:25:11;10.27;;;7.30;;
13959;SDS011;7052;51.050;3.716;2024-01-30T04:27:38;11.03;;;7.17;;
13959;SDS011;7052;51.050;3.716;2024-01-30T04:30:13;9.43;;;7.50;;
13959;SDS011;7052;51.050;3.716;2024-01-30T04:32:40;8.67;;;6.80;;
13959;SDS011;7052;51.050;3.716;2024-01-30T04:35:13;9.33;;;7.30;;
13959;SDS011;7052;51.050;3.716;2024-01-30T04:37:41;9.13;;;7.37;;
13959;SDS011;7052;51.050;3.716;2024-01-30T04:40:10;9.40;;;6.77;;
13959;SDS011;7052;51.050;3.716;2024-01-30T04:42:38;8.93;;;7.83;;
13959;SDS011;7052;51.050;3.716;2024-01-30T04:45:05;10.90;;;7.00;;
13959;SDS011;7052;51.050;3.716;2024-01-30T04:47:35;7.47;;;6.60;;
13959;SDS011;7052;51.050;3.716;2024-01-30T04:50:03;9.57;;;6.93;;
13959;SDS011;7052;51.050;3.716;2024-01-30T04:52:31;8.37;;;6.40;;
13959;SDS011;7052;51.050;3.716;2024-01-30T04:55:00;8.33;;;7.23;;
13959;SDS011;7052;51.050;3.716;2024-01-30T04:57:28;8.50;;;6.17;;
13959;SDS011;7052;51.050;3.716;2024-01-30T04:59:56;8.90;;;7.20;;
13959;SDS011;7052;51.050;3.716;2024-01-30T05:02:22;7.97;;;6.00;;
13959;SDS011;7052;51.050;3.716;2024-01-30T05:04:51;7.73;;;6.67;;
13959;SDS011;7052;51.050;3.716;2024-01-30T05:07:18;9.03;;;6.47;;
13959;SDS011;7052;51.050;3.716;2024-01-30T05:09:45;10.67;;;6.77;;
13959;SDS011;7052;51.050;3.716;2024-01-30T05:12:19;9.03;;;6.43;;
13959;SDS011;7052;51.050;3.716;2024-01-30T05:14:46;8.27;;;6.60;;
13959;SDS011;7052;51.050;3.716;2024-01-30T05:17:14;7.90;;;6.77;;
13959;SDS011;7052;51.050;3.716;2024-01-30T05:19:42;10.63;;;6.23;;
13959;SDS011;7052;51.050;3.716;2024-01-30T05:22:18;10.43;;;7.20;;
13959;SDS011;7052;51.050;3.716;2024-01-30T05:24:45;7.97;;;6.47;;
13959;SDS011;7052;51.050;3.716;2024-01-30T05:27:12;9.17;;;6.47;;
13959;SDS011;7052;51.050;3.716;2024-01-30T05:29:40;13.30;;;7.40;;
13959;SDS011;7052;51.050;3.716;2024-01-30T05:32:08;11.73;;;7.37;;
13959;SDS011;7052;51.050;3.716;2024-01-30T05:34:37;11.33;;;6.90;;
13959;SDS011;7052;51.050;3.716;2024-01-30T05:37:05;8.03;;;6.23;;
13959;SDS011;7052;51.050;3.716;2024-01-30T05:39:35;9.07;;;6.93;;
13959;SDS011;7052;51.050;3.716;2024-01-30T05:42:06;8.47;;;6.80;;
13959;SDS011;7052;51.050;3.716;2024-01-30T05:44:35;12.73;;;7.07;;
13959;SDS011;7052;51.050;3.716;2024-01-30T05:47:03;10.00;;;6.70;;
13959;SDS011;7052;51.050;3.716;2024-01-30T05:49:32;7.93;;;6.37;;
13959;SDS011;7052;51.050;3.716;2024-01-30T05:52:07;7.60;;;6.80;;
13959;SDS011;7052;51.050;3.716;2024-01-30T05:54:35;7.83;;;6.57;;
13959;SDS011;7052;51.050;3.716;2024-01-30T05:57:02;9.83;;;7.07;;
13959;SDS011;7052;51.050;3.716;2024-01-30T05:59:29;9.33;;;6.63;;
13959;SDS011;7052;51.050;3.716;2024-01-30T06:01:56;8.87;;;6.67;;
13959;SDS011;7052;51.050;3.716;2024-01-30T06:04:25;11.17;;;6.90;;
13959;SDS011;7052;51.050;3.716;2024-01-30T06:06:52;8.20;;;6.47;;
13959;SDS011;7052;51.050;3.716;2024-01-30T06:09:19;22.40;;;8.20;;
13959;SDS011;7052;51.050;3.716;2024-01-30T06:11:46;9.53;;;6.83;;
13959;SDS011;7052;51.050;3.716;2024-01-30T06:14:14;9.37;;;6.60;;
13959;SDS011;7052;51.050;3.716;2024-01-30T06:16:42;9.27;;;7.10;;
13959;SDS011;7052;51.050;3.716;2024-01-30T06:19:11;9.60;;;6.53;;
13959;SDS011;7052;51.050;3.716;2024-01-30T06:21:40;10.50;;;7.00;;
13959;SDS011;7052;51.050;3.716;2024-01-30T06:24:09;9.47;;;7.17;;
13959;SDS011;7052;51.050;3.716;2024-01-30T06:26:36;11.00;;;7.60;;
13959;SDS011;7052;51.050;3.716;2024-01-30T06:29:04;8.97;;;6.83;;
13959;SDS011;7052;51.050;3.716;2024-01-30T06:31:31;12.47;;;7.60;;
13959;SDS011;7052;51.050;3.716;2024-01-30T06:33:58;10.23;;;7.33;;
13959;SDS011;7052;51.050;3.716;2024-01-30T06:36:26;8.37;;;6.50;;
13959;SDS011;7052;51.050;3.716;2024-01-30T06:38:55;11.03;;;7.23;;
13959;SDS011;7052;51.050;3.716;2024-01-30T06:41:22;8.70;;;7.00;;
13959;SDS011;7052;51.050;3.716;2024-01-30T06:43:49;8.03;;;6.73;;
13959;SDS011;7052;51.050;3.716;2024-01-30T06:46:18;11.23;;;7.33;;
13959;SDS011;7052;51.050;3.716;2024-01-30T06:48:48;9.40;;;6.93;;
13959;SDS011;7052;51.050;3.716;2024-01-30T06:51:18;8.60;;;6.60;;
13959;SDS011;7052;51.050;3.716;2024-01-30T06:53:49;9.33;;;6.87;;
13959;SDS011;7052;51.050;3.716;2024-01-30T06:56:18;9.53;;;7.03;;
13959;SDS011;7052;51.050;3.716;2024-01-30T06:58:46;8.93;;;6.77;;
13959;SDS011;7052;51.050;3.716;2024-01-30T07:01:15;10.33;;;7.23;;
13959;SDS011;7052;51.050;3.716;2024-01-30T07:03:42;9.40;;;7.63;;
13959;SDS011;7052;51.050;3.716;2024-01-30T07:06:10;13.13;;;7.50;;
13959;SDS011;7052;51.050;3.716;2024-01-30T07:08:37;10.50;;;6.60;;
13959;SDS011;7052;51.050;3.716;2024-01-30T07:11:04;10.33;;;7.53;;
13959;SDS011;7052;51.050;3.716;2024-01-30T07:13:42;12.00;;;8.33;;
13959;SDS011;7052;51.050;3.716;2024-01-30T07:16:10;14.73;;;7.60;;
13959;SDS011;7052;51.050;3.716;2024-01-30T07:18:44;10.83;;;7.43;;
13959;SDS011;7052;51.050;3.716;2024-01-30T07:21:11;14.93;;;7.43;;
13959;SDS011;7052;51.050;3.716;2024-01-30T07:23:38;11.37;;;7.03;;
13959;SDS011;7052;51.050;3.716;2024-01-30T07:26:07;10.93;;;7.57;;
13959;SDS011;7052;51.050;3.716;2024-01-30T07:28:35;13.03;;;7.27;;
13959;SDS011;7052;51.050;3.716;2024-01-30T07:31:08;15.80;;;8.23;;
13959;SDS011;7052;51.050;3.716;2024-01-30T07:33:35;12.50;;;6.87;;
13959;SDS011;7052;51.050;3.716;2024-01-30T07:36:04;9.17;;;7.03;;
13959;SDS011;7052;51.050;3.716;2024-01-30T07:38:31;10.63;;;6.93;;
13959;SDS011;7052;51.050;3.716;2024-01-30T07:40:58;10.17;;;7.20;;
13959;SDS011;7052;51.050;3.716;2024-01-30T07:43:28;14.33;;;7.67;;
13959;SDS011;7052;51.050;3.716;2024-01-30T07:45:55;9.50;;;6.87;;
13959;SDS011;7052;51.050;3.716;2024-01-30T07:48:24;13.43;;;7.77;;
13959;SDS011;7052;51.050;3.716;2024-01-30T07:50:52;8.73;;;7.23;;
13959;SDS011;7052;51.050;3.716;2024-01-30T07:53:20;9.73;;;7.50;;
13959;SDS011;7052;51.050;3.716;2024-01-30T07:55:48;12.47;;;8.63;;
13959;SDS011;7052;51.050;3.716;2024-01-30T07:58:18;11.20;;;8.57;;
13959;SDS011;7052;51.050;3.716;2024-01-30T08:00:45;14.13;;;7.97;;
13959;SDS011;7052;51.050;3.716;2024-01-30T08:03:12;11.93;;;8.40;;
13959;SDS011;7052;51.050;3.716;2024-01-30T08:05:42;8.97;;;7.47;;
13959;SDS011;7052;51.050;3.716;2024-01-30T08:08:11;13.10;;;7.50;;
13959;SDS011;7052;51.050;3.716;2024-01-30T08:10:40;10.10;;;7.53;;
13959;SDS011;7052;51.050;3.716;2024-01-30T08:13:10;14.80;;;8.27;;
13959;SDS011;7052;51.050;3.716;2024-01-30T08:15:37;10.93;;;7.20;;
13959;SDS011;7052;51.050;3.716;2024-01-30T08:18:04;11.07;;;8.03;;
13959;SDS011;7052;51.050;3.716;2024-01-30T08:20:32;16.10;;;8.30;;
13959;SDS011;7052;51.050;3.716;2024-01-30T08:23:01;11.93;;;8.03;;
13959;SDS011;7052;51.050;3.716;2024-01-30T08:25:28;14.57;;;8.60;;
13959;SDS011;7052;51.050;3.716;2024-01-30T08:27:55;14.23;;;8.27;;
13959;SDS011;7052;51.050;3.716;2024-01-30T08:30:22;10.20;;;8.27;;
13959;SDS011;7052;51.050;3.716;2024-01-30T08:32:51;28.50;;;8.97;;
13959;SDS011;7052;51.050;3.716;2024-01-30T08:35:25;13.37;;;9.00;;
13959;SDS011;7052;51.050;3.716;2024-01-30T08:37:56;12.43;;;8.70;;
13959;SDS011;7052;51.050;3.716;2024-01-30T08:40:26;11.87;;;8.17;;
13959;SDS011;7052;51.050;3.716;2024-01-30T08:42:54;15.20;;;8.97;;
13959;SDS011;7052;51.050;3.716;2024-01-30T08:45:21;15.20;;;8.13;;
13959;SDS011;7052;51.050;3.716;2024-01-30T08:47:48;14.47;;;8.90;;
13959;SDS011;7052;51.050;3.716;2024-01-30T08:50:16;16.03;;;8.87;;
13959;SDS011;7052;51.050;3.716;2024-01-30T08:52:43;15.20;;;9.00;;
13959;SDS011;7052;51.050;3.716;2024-01-30T08:55:11;12.17;;;8.47;;
13959;SDS011;7052;51.050;3.716;2024-01-30T08:57:43;11.63;;;8.97;;
13959;SDS011;7052;51.050;3.716;2024-01-30T09:00:12;16.77;;;7.70;;
13959;SDS011;7052;51.050;3.716;2024-01-30T09:02:43;11.57;;;7.60;;
13959;SDS011;7052;51.050;3.716;2024-01-30T09:05:10;8.17;;;6.23;;
13959;SDS011;7052;51.050;3.716;2024-01-30T09:07:38;13.27;;;6.07;;
13959;SDS011;7052;51.050;3.716;2024-01-30T09:10:07;10.47;;;5.97;;
13959;SDS011;7052;51.050;3.716;2024-01-30T09:12:35;10.67;;;5.80;;
13959;SDS011;7052;51.050;3.716;2024-01-30T09:15:07;10.57;;;5.97;;
13959;SDS011;7052;51.050;3.716;2024-01-30T09:17:34;8.90;;;5.87;;
13959;SDS011;7052;51.050;3.716;2024-01-30T09:20:06;11.63;;;5.27;;
13959;SDS011;7052;51.050;3.716;2024-01-30T09:22:35;8.53;;;4.63;;
13959;SDS011;7052;51.050;3.716;2024-01-30T09:25:04;9.93;;;4.23;;
13959;SDS011;7052;51.050;3.716;2024-01-30T09:27:32;7.07;;;3.53;;
13959;SDS011;7052;51.050;3.716;2024-01-30T09:29:59;11.50;;;3.17;;
13959;SDS011;7052;51.050;3.716;2024-01-30T09:32:30;8.37;;;3.40;;
13959;SDS011;7052;51.050;3.716;2024-01-30T09:35:03;5.53;;;2.73;;
13959;SDS011;7052;51.050;3.716;2024-01-30T09:37:31;9.13;;;3.60;;
13959;SDS011;7052;51.050;3.716;2024-01-30T09:39:58;9.87;;;3.20;;
13959;SDS011;7052;51.050;3.716;2024-01-30T09:42:26;12.27;;;3.80;;
13959;SDS011;7052;51.050;3.716;2024-01-30T09:45:05;12.43;;;2.90;;
13959;SDS011;7052;51.050;3.716;2024-01-30T09:47:35;3.40;;;2.00;;
13959;SDS011;7052;51.050;3.716;2024-01-30T09:50:08;7.60;;;2.57;;
13959;SDS011;7052;51.050;3.716;2024-01-30T09:52:38;5.83;;;2.47;;
13959;SDS011;7052;51.050;3.716;2024-01-30T09:55:06;5.47;;;2.00;;
13959;SDS011;7052;51.050;3.716;2024-01-30T09:57:35;9.77;;;2.70;;
13959;SDS011;7052;51.050;3.716;2024-01-30T10:00:08;3.33;;;2.00;;
13959;SDS011;7052;51.050;3.716;2024-01-30T10:02:39;9.13;;;2.33;;
13959;SDS011;7052;51.050;3.716;2024-01-30T10:05:10;5.90;;;1.83;;
13959;SDS011;7052;51.050;3.716;2024-01-30T10:07:49;6.30;;;2.07;;
13959;SDS011;7052;51.050;3.716;2024-01-30T10:10:19;3.17;;;1.70;;
13959;SDS011;7052;51.050;3.716;2024-01-30T10:12:48;4.90;;;1.60;;
13959;SDS011;7052;51.050;3.716;2024-01-30T10:15:19;5.00;;;2.07;;
13959;SDS011;7052;51.050;3.716;2024-01-30T10:17:49;5.60;;;2.00;;
13959;SDS011;7052;51.050;3.716;2024-01-30T10:20:18;4.63;;;1.63;;
13959;SDS011;7052;51.050;3.716;2024-01-30T10:22:48;6.20;;;2.13;;
13959;SDS011;7052;51.050;3.716;2024-01-30T10:25:18;3.57;;;1.40;;
13959;SDS011;7052;51.050;3.716;2024-01-30T10:27:52;5.93;;;2.00;;
13959;SDS011;7052;51.050;3.716;2024-01-30T10:30:19;7.07;;;2.43;;
13959;SDS011;7052;51.050;3.716;2024-01-30T10:32:49;3.80;;;1.50;;
13959;SDS011;7052;51.050;3.716;2024-01-30T10:35:17;45.40;;;5.13;;
13959;SDS011;7052;51.050;3.716;2024-01-30T10:37:47;9.00;;;2.10;;
13959;SDS011;7052;51.050;3.716;2024-01-30T10:40:15;4.57;;;1.60;;
13959;SDS011;7052;51.050;3.716;2024-01-30T10:42:43;8.30;;;2.17;;
13959;SDS011;7052;51.050;3.716;2024-01-30T10:45:12;8.23;;;1.90;;
13959;SDS011;7052;51.050;3.716;2024-01-30T10:47:43;14.60;;;2.50;;
13959;SDS011;7052;51.050;3.716;2024-01-30T10:50:17;5.80;;;1.90;;
13959;SDS011;7052;51.050;3.716;2024-01-30T10:52:47;5.47;;;1.97;;
13959;SDS011;7052;51.050;3.716;2024-01-30T10:55:18;5.47;;;1.83;;
13959;SDS011;7052;51.050;3.716;2024-01-30T10:57:47;11.93;;;2.80;;
13959;SDS011;7052;51.050;3.716;2024-01-30T11:00:15;4.87;;;2.10;;
13959;SDS011;7052;51.050;3.716;2024-01-30T11:02:47;10.97;;;2.47;;
13959;SDS011;7052;51.050;3.716;2024-01-30T11:05:24;3.73;;;1.87;;
13959;SDS011;7052;51.050;3.716;2024-01-30T11:07:54;8.73;;;2.47;;
13959;SDS011;7052;51.050;3.716;2024-01-30T11:10:21;3.67;;;1.70;;
13959;SDS011;7052;51.050;3.716;2024-01-30T11:12:52;6.60;;;1.80;;
13959;SDS011;7052;51.050;3.716;2024-01-30T11:15:19;2.93;;;1.80;;
13959;SDS011;7052;51.050;3.716;2024-01-30T11:17:50;8.40;;;3.07;;
13959;SDS011;7052;51.050;3.716;2024-01-30T11:20:25;17.13;;;4.07;;
13959;SDS011;7052;51.050;3.716;2024-01-30T11:22:56;7.17;;;2.33;;
13959;SDS011;7052;51.050;3.716;2024-01-30T11:25:23;3.90;;;1.70;;
13959;SDS011;7052;51.050;3.716;2024-01-30T11:27:53;7.13;;;2.83;;
13959;SDS011;7052;51.050;3.716;2024-01-30T11:30:25;3.33;;;1.63;;
13959;SDS011;7052;51.050;3.716;2024-01-30T11:32:59;5.90;;;2.20;;
13959;SDS011;7052;51.050;3.716;2024-01-30T11:35:28;6.73;;;1.90;;
13959;SDS011;7052;51.050;3.716;2024-01-30T11:37:57;8.17;;;2.10;;
13959;SDS011;7052;51.050;3.716;2024-01-30T11:40:29;10.50;;;2.57;;
13959;SDS011;7052;51.050;3.716;2024-01-30T11:42:59;6.77;;;2.37;;
13959;SDS011;7052;51.050;3.716;2024-01-30T11:45:29;9.07;;;2.67;;
13959;SDS011;7052;51.050;3.716;2024-01-30T11:48:00;8.10;;;2.07;;
13959;SDS011;7052;51.050;3.716;2024-01-30T11:50:31;8.53;;;2.57;;
13959;SDS011;7052;51.050;3.716;2024-01-30T11:53:03;5.60;;;1.43;;
13959;SDS011;7052;51.050;3.716;2024-01-30T11:55:31;4.03;;;2.00;;
13959;SDS011;7052;51.050;3.716;2024-01-30T11:58:01;4.93;;;1.80;;
13959;SDS011;7052;51.050;3.716;2024-01-30T12:00:32;8.27;;;1.90;;
13959;SDS011;7052;51.050;3.716;2024-01-30T12:03:01;11.87;;;2.53;;
13959;SDS011;7052;51.050;3.716;2024-01-30T12:05:33;7.13;;;2.30;;
13959;SDS011;7052;51.050;3.716;2024-01-30T12:08:01;5.93;;;2.00;;
13959;SDS011;7052;51.050;3.716;2024-01-30T12:10:28;6.70;;;1.83;;
13959;SDS011;7052;51.050;3.716;2024-01-30T12:12:56;11.03;;;2.10;;
13959;SDS011;7052;51.050;3.716;2024-01-30T12:15:23;9.27;;;2.27;;
13959;SDS011;7052;51.050;3.716;2024-01-30T12:17:51;4.87;;;1.90;;
13959;SDS011;7052;51.050;3.716;2024-01-30T12:20:21;7.83;;;1.80;;
13959;SDS011;7052;51.050;3.716;2024-01-30T12:22:52;4.57;;;1.80;;
13959;SDS011;7052;51.050;3.716;2024-01-30T12:25:20;8.50;;;2.17;;
13959;SDS011;7052;51.050;3.716;2024-01-30T12:27:49;5.73;;;2.07;;
13959;SDS011;7052;51.050;3.716;2024-01-30T12:30:17;4.53;;;1.63;;
13959;SDS011;7052;51.050;3.716;2024-01-30T12:32:46;5.30;;;1.70;;
13959;SDS011;7052;51.050;3.716;2024-01-30T12:35:19;2.97;;;1.60;;
13959;SDS011;7052;51.050;3.716;2024-01-30T12:37:49;5.17;;;1.77;;
13959;SDS011;7052;51.050;3.716;2024-01-30T12:40:17;3.27;;;1.60;;
13959;SDS011;7052;51.050;3.716;2024-01-30T12:42:46;4.33;;;1.70;;
13959;SDS011;7052;51.050;3.716;2024-01-30T12:45:15;4.23;;;1.90;;
13959;SDS011;7052;51.050;3.716;2024-01-30T12:47:45;7.90;;;1.90;;
13959;SDS011;7052;51.050;3.716;2024-01-30T12:50:12;4.97;;;1.80;;
13959;SDS011;7052;51.050;3.716;2024-01-30T12:52:40;7.57;;;1.87;;
13959;SDS011;7052;51.050;3.716;2024-01-30T12:55:11;6.57;;;1.97;;
13959;SDS011;7052;51.050;3.716;2024-01-30T12:57:41;5.63;;;1.70;;
13959;SDS011;7052;51.050;3.716;2024-01-30T13:00:08;5.43;;;1.90;;
13959;SDS011;7052;51.050;3.716;2024-01-30T13:02:37;6.07;;;1.90;;
13959;SDS011;7052;51.050;3.716;2024-01-30T13:05:04;4.10;;;1.70;;
13959;SDS011;7052;51.050;3.716;2024-01-30T13:07:32;9.97;;;2.47;;
13959;SDS011;7052;51.050;3.716;2024-01-30T13:10:01;4.73;;;1.90;;
13959;SDS011;7052;51.050;3.716;2024-01-30T13:12:30;9.13;;;2.70;;
13959;SDS011;7052;51.050;3.716;2024-01-30T13:15:02;3.63;;;1.57;;
13959;SDS011;7052;51.050;3.716;2024-01-30T13:17:32;4.47;;;1.57;;
13959;SDS011;7052;51.050;3.716;2024-01-30T13:19:59;7.60;;;2.40;;
13959;SDS011;7052;51.050;3.716;2024-01-30T13:22:29;10.20;;;2.23;;
13959;SDS011;7052;51.050;3.716;2024-01-30T13:24:57;5.70;;;2.00;;
13959;SDS011;7052;51.050;3.716;2024-01-30T13:27:24;5.00;;;1.97;;
13959;SDS011;7052;51.050;3.716;2024-01-30T13:29:51;4.77;;;1.67;;
13959;SDS011;7052;51.050;3.716;2024-01-30T13:32:21;4.67;;;2.00;;
13959;SDS011;7052;51.050;3.716;2024-01-30T13:34:51;4.23;;;1.90;;
13959;SDS011;7052;51.050;3.716;2024-01-30T13:37:18;9.25;;;2.40;;
13959;SDS011;7052;51.050;3.716;2024-01-30T13:39:45;14.53;;;2.97;;
13959;SDS011;7052;51.050;3.716;2024-01-30T13:42:12;6.20;;;2.00;;
13959;SDS011;7052;51.050;3.716;2024-01-30T13:44:39;14.10;;;3.07;;
13959;SDS011;7052;51.050;3.716;2024-01-30T13:47:10;9.80;;;2.27;;
13959;SDS011;7052;51.050;3.716;2024-01-30T13:49:41;5.87;;;1.80;;
13959;SDS011;7052;51.050;3.716;2024-01-30T13:52:13;4.27;;;1.70;;
13959;SDS011;7052;51.050;3.716;2024-01-30T13:54:43;5.20;;;2.00;;
13959;SDS011;7052;51.050;3.716;2024-01-30T13:57:10;6.50;;;2.50;;
13959;SDS011;7052;51.050;3.716;2024-01-30T13:59:38;12.53;;;2.73;;
13959;SDS011;7052;51.050;3.716;2024-01-30T14:02:07;6.43;;;2.23;;
13959;SDS011;7052;51.050;3.716;2024-01-30T14:04:37;17.10;;;3.33;;
13959;SDS011;7052;51.050;3.716;2024-01-30T14:07:05;7.00;;;2.20;;
13959;SDS011;7052;51.050;3.716;2024-01-30T14:09:32;6.40;;;2.20;;
13959;SDS011;7052;51.050;3.716;2024-01-30T14:12:00;12.13;;;2.43;;
13959;SDS011;7052;51.050;3.716;2024-01-30T14:14:26;7.03;;;2.27;;
13959;SDS011;7052;51.050;3.716;2024-01-30T14:16:54;15.77;;;3.70;;
13959;SDS011;7052;51.050;3.716;2024-01-30T14:19:23;6.30;;;2.10;;
13959;SDS011;7052;51.050;3.716;2024-01-30T14:21:52;7.57;;;2.50;;
13959;SDS011;7052;51.050;3.716;2024-01-30T14:24:19;20.50;;;3.27;;
13959;SDS011;7052;51.050;3.716;2024-01-30T14:26:49;6.40;;;2.93;;
13959;SDS011;7052;51.050;3.716;2024-01-30T14:29:16;5.77;;;2.63;;
13959;SDS011;7052;51.050;3.716;2024-01-30T14:31:45;4.70;;;2.90;;
13959;SDS011;7052;51.050;3.716;2024-01-30T14:34:13;5.77;;;2.97;;
13959;SDS011;7052;51.050;3.716;2024-01-30T14:36:42;3.40;;;2.27;;
13959;SDS011;7052;51.050;3.716;2024-01-30T14:39:11;6.97;;;2.97;;
13959;SDS011;7052;51.050;3.716;2024-01-30T14:41:39;6.10;;;3.13;;
13959;SDS011;7052;51.050;3.716;2024-01-30T14:44:07;6.93;;;2.90;;
13959;SDS011;7052;51.050;3.716;2024-01-30T14:46:35;7.63;;;2.97;;
13959;SDS011;7052;51.050;3.716;2024-01-30T14:49:02;9.87;;;2.90;;
13959;SDS011;7052;51.050;3.716;2024-01-30T14:51:31;7.20;;;3.00;;
13959;SDS011;7052;51.050;3.716;2024-01-30T14:54:00;8.83;;;3.73;;
13959;SDS011;7052;51.050;3.716;2024-01-30T14:56:33;6.47;;;3.33;;
13959;SDS011;7052;51.050;3.716;2024-01-30T14:59:02;12.43;;;4.40;;
13959;SDS011;7052;51.050;3.716;2024-01-30T15:01:30;19.00;;;5.27;;
13959;SDS011;7052;51.050;3.716;2024-01-30T15:04:00;6.70;;;3.50;;
13959;SDS011;7052;51.050;3.716;2024-01-30T15:06:27;10.80;;;3.40;;